createdAt,value
2023-01-29T00:00:37.649Z,94.22
2023-01-29T00:03:17.083Z,90.22
2023-01-29T00:05:59.719Z,93.85
2023-01-29T00:08:37.410Z,93.07
2023-01-29T00:11:20.351Z,93.68
2023-01-29T00:13:58.747Z,84.53
2023-01-29T00:16:33.680Z,88.80
2023-01-29T00:19:22.636Z,82.13
2023-01-29T00:21:57.331Z,70.25
2023-01-29T00:24:34.051Z,75.45
2023-01-29T00:27:14.334Z,77.32
2023-01-29T00:30:07.045Z,81.38
2023-01-29T00:32:47.824Z,76.90
2023-01-29T00:35:25.439Z,72.40
2023-01-29T00:38:01.410Z,76.80
2023-01-29T00:40:57.407Z,71.70
2023-01-29T00:43:50.820Z,59.17
2023-01-29T00:46:28.140Z,75.60
2023-01-29T00:49:03.651Z,82.20
2023-01-29T00:51:43.270Z,78.30
2023-01-29T00:54:18.827Z,89.38
2023-01-29T00:56:54.485Z,88.88
2023-01-29T00:59:28.910Z,90.07
2023-01-29T01:02:23.039Z,84.03
2023-01-29T01:04:57.665Z,83.35
2023-01-29T01:07:36.927Z,80.95
2023-01-29T01:10:25.654Z,88.15
2023-01-29T01:13:26.451Z,73.60
2023-01-29T01:16:05.643Z,82.53
2023-01-29T01:18:48.455Z,90.00
2023-01-29T01:21:23.313Z,83.83
2023-01-29T01:23:57.753Z,81.03
2023-01-29T01:26:32.720Z,95.65
2023-01-29T01:29:05.070Z,96.70
2023-01-29T01:31:42.897Z,99.65
2023-01-29T01:34:27.095Z,106.60
2023-01-29T01:36:59.757Z,93.82
2023-01-29T01:39:42.964Z,94.40
2023-01-29T01:42:15.971Z,98.53
2023-01-29T01:44:58.632Z,95.85
2023-01-29T01:47:45.025Z,99.95
2023-01-29T01:50:35.457Z,102.85
2023-01-29T01:53:20.049Z,99.63
2023-01-29T01:56:08.814Z,95.82
2023-01-29T01:58:50.466Z,95.53
2023-01-29T02:01:29.305Z,86.97
2023-01-29T02:04:27.804Z,98.65
2023-01-29T02:07:23.682Z,109.55
2023-01-29T02:10:03.200Z,87.38
2023-01-29T02:12:45.626Z,96.93
2023-01-29T02:15:26.567Z,91.68
2023-01-29T02:18:01.385Z,89.15
2023-01-29T02:20:43.843Z,95.20
2023-01-29T02:23:51.410Z,84.40
2023-01-29T02:26:36.447Z,95.65
2023-01-29T02:29:36.303Z,96.18
2023-01-29T02:32:28.403Z,85.00
2023-01-29T02:35:32.075Z,102.95
2023-01-29T02:38:29.246Z,88.00
2023-01-29T02:41:07.128Z,97.30
2023-01-29T02:43:54.703Z,96.03
2023-01-29T02:46:43.209Z,89.38
2023-01-29T02:49:32.888Z,101.75
2023-01-29T02:52:34.538Z,93.68
2023-01-29T02:55:32.437Z,105.37
2023-01-29T02:58:50.840Z,102.40
2023-01-29T03:01:54.271Z,102.60
2023-01-29T03:04:41.364Z,104.82
2023-01-29T03:07:37.369Z,101.95
2023-01-29T03:10:33.770Z,97.00
2023-01-29T03:13:23.467Z,96.47
2023-01-29T03:16:07.653Z,105.63
2023-01-29T03:19:08.257Z,91.68
2023-01-29T03:22:10.727Z,93.57
2023-01-29T03:25:13.703Z,105.20
2023-01-29T03:28:15.460Z,107.10
2023-01-29T03:31:15.460Z,90.50
2023-01-29T03:34:01.038Z,97.38
2023-01-29T03:36:52.316Z,98.60
2023-01-29T03:39:35.836Z,106.18
2023-01-29T03:42:27.121Z,101.38
2023-01-29T03:45:08.222Z,94.93
2023-01-29T03:48:13.628Z,100.82
2023-01-29T03:51:15.641Z,90.18
2023-01-29T03:54:06.414Z,92.93
2023-01-29T03:56:59.976Z,89.95
2023-01-29T03:59:41.363Z,95.63
2023-01-29T04:02:43.141Z,90.72
2023-01-29T04:05:27.579Z,94.20
2023-01-29T04:08:19.944Z,92.03
2023-01-29T04:11:02.687Z,88.32
2023-01-29T04:13:40.460Z,84.07
2023-01-29T04:16:16.911Z,91.75
2023-01-29T04:19:07.916Z,89.45
2023-01-29T04:21:51.960Z,81.78
2023-01-29T04:24:30.180Z,59.33
2023-01-29T04:27:09.090Z,84.55
2023-01-29T04:29:58.695Z,90.70
2023-01-29T04:32:48.116Z,85.97
2023-01-29T04:35:42.513Z,82.25
2023-01-29T04:38:51.981Z,89.88
2023-01-29T04:41:33.759Z,89.72
2023-01-29T04:44:14.785Z,87.07
2023-01-29T04:46:59.445Z,87.00
2023-01-29T04:49:45.276Z,92.85
2023-01-29T04:52:44.955Z,87.00
2023-01-29T04:56:06.943Z,90.75
2023-01-29T04:58:49.661Z,85.60
2023-01-29T05:01:28.421Z,59.20
2023-01-29T05:04:12.112Z,104.20
2023-01-29T05:09:29.045Z,90.97
2023-01-29T05:12:08.162Z,90.80
2023-01-29T05:14:45.762Z,83.05
2023-01-29T05:17:22.318Z,84.22
2023-01-29T05:19:56.844Z,90.10
2023-01-29T05:22:38.477Z,84.97
2023-01-29T05:25:35.255Z,84.22
2023-01-29T05:28:19.202Z,83.20
2023-01-29T05:30:58.433Z,79.68
2023-01-29T05:33:33.236Z,80.13
2023-01-29T05:36:10.202Z,84.32
2023-01-29T05:38:45.071Z,75.78
2023-01-29T05:41:17.564Z,84.45
2023-01-29T05:43:52.914Z,76.93
2023-01-29T05:46:28.489Z,73.45
2023-01-29T05:49:08.869Z,78.10
2023-01-29T05:51:47.446Z,85.43
2023-01-29T05:54:30.343Z,76.13
2023-01-29T05:57:04.590Z,59.22
2023-01-29T05:59:39.699Z,83.15
2023-01-29T06:02:16.206Z,78.05
2023-01-29T06:04:55.985Z,80.82
2023-01-29T06:07:36.317Z,63.97
2023-01-29T06:10:09.404Z,80.85
2023-01-29T06:12:49.501Z,84.53
2023-01-29T06:15:29.405Z,89.97
2023-01-29T06:18:02.333Z,75.72
2023-01-29T06:20:35.432Z,81.65
2023-01-29T06:23:13.520Z,80.55
2023-01-29T06:25:48.482Z,78.70
2023-01-29T06:28:26.326Z,77.90
2023-01-29T06:31:22.197Z,76.50
2023-01-29T06:34:04.582Z,76.33
2023-01-29T06:36:45.219Z,78.85
2023-01-29T06:39:17.482Z,79.95
2023-01-29T06:41:51.670Z,65.57
2023-01-29T06:44:28.888Z,66.03
2023-01-29T06:47:09.235Z,68.60
2023-01-29T06:49:44.681Z,59.05
2023-01-29T06:52:19.858Z,55.10
2023-01-29T06:54:57.494Z,56.47
2023-01-29T06:57:39.922Z,51.60
2023-01-29T07:00:17.286Z,46.70
2023-01-29T07:02:57.892Z,52.75
2023-01-29T07:05:32.914Z,51.33
2023-01-29T07:08:13.904Z,45.03
2023-01-29T07:10:45.778Z,47.33
2023-01-29T07:13:29.533Z,43.08
2023-01-29T07:16:07.148Z,47.72
2023-01-29T07:18:44.966Z,48.25
2023-01-29T07:21:21.102Z,47.70
2023-01-29T07:23:56.580Z,50.38
2023-01-29T07:26:29.353Z,48.60
2023-01-29T07:29:06.691Z,49.72
2023-01-29T07:31:47.506Z,52.88
2023-01-29T07:34:22.394Z,43.88
2023-01-29T07:37:06.680Z,43.25
2023-01-29T07:39:46.539Z,46.30
2023-01-29T07:42:24.601Z,39.72
2023-01-29T07:44:54.175Z,44.78
2023-01-29T07:47:29.215Z,42.40
2023-01-29T07:50:09.278Z,43.47
2023-01-29T07:52:49.967Z,50.35
2023-01-29T07:55:28.678Z,41.35
2023-01-29T07:58:07.795Z,48.78
2023-01-29T08:00:42.031Z,47.67
2023-01-29T08:03:21.347Z,48.78
2023-01-29T08:06:03.780Z,52.30
2023-01-29T08:08:35.939Z,41.78
2023-01-29T08:11:07.811Z,43.47
2023-01-29T08:13:48.639Z,43.30
2023-01-29T08:16:22.823Z,43.40
2023-01-29T08:19:04.113Z,48.08
2023-01-29T08:21:39.216Z,43.83
2023-01-29T08:24:16.503Z,44.13
2023-01-29T08:26:54.187Z,53.10
2023-01-29T08:29:26.363Z,39.35
2023-01-29T08:32:11.263Z,37.65
2023-01-29T08:34:48.626Z,53.78
2023-01-29T08:37:29.492Z,41.17
2023-01-29T08:40:03.296Z,40.85
2023-01-29T08:42:41.576Z,37.75
2023-01-29T08:45:22.955Z,37.75
2023-01-29T08:47:59.393Z,34.40
2023-01-29T08:53:18.885Z,37.25
2023-01-29T08:55:55.658Z,35.10
2023-01-29T08:58:33.970Z,31.88
2023-01-29T09:01:15.235Z,34.03
2023-01-29T09:03:54.823Z,33.95
2023-01-29T09:06:29.417Z,32.35
2023-01-29T09:09:12.751Z,35.50
2023-01-29T09:11:53.176Z,30.10
2023-01-29T09:14:44.769Z,30.48
2023-01-29T09:17:20.001Z,29.35
2023-01-29T09:19:58.758Z,32.22
2023-01-29T09:22:36.926Z,32.67
2023-01-29T09:25:12.857Z,32.50
2023-01-29T09:27:46.172Z,30.30
2023-01-29T09:30:23.152Z,30.33
2023-01-29T09:32:57.574Z,33.08
2023-01-29T09:35:35.444Z,29.75
2023-01-29T09:38:10.396Z,28.83
2023-01-29T09:41:16.214Z,29.77
2023-01-29T09:43:58.675Z,31.77
2023-01-29T09:46:40.844Z,26.60
2023-01-29T09:49:25.663Z,29.73
2023-01-29T09:52:24.038Z,37.45
2023-01-29T09:55:17.310Z,40.08
2023-01-29T09:57:57.675Z,41.97
2023-01-29T10:00:56.328Z,28.50
2023-01-29T10:03:46.602Z,28.73
2023-01-29T10:06:38.439Z,29.67
2023-01-29T10:09:37.091Z,28.45
2023-01-29T10:12:32.456Z,30.92
2023-01-29T10:15:13.916Z,30.52
2023-01-29T10:17:57.847Z,25.52
2023-01-29T10:21:02.645Z,26.52
2023-01-29T10:23:44.707Z,29.90
2023-01-29T10:26:28.493Z,29.27
2023-01-29T10:29:05.694Z,27.70
2023-01-29T10:31:42.502Z,32.70
2023-01-29T10:34:46.475Z,28.55
2023-01-29T10:37:40.662Z,26.20
2023-01-29T10:40:47.005Z,24.50
2023-01-29T10:43:58.095Z,30.60
2023-01-29T10:47:05.796Z,26.58
2023-01-29T10:50:00.459Z,33.30
2023-01-29T10:53:27.243Z,28.45
2023-01-29T10:56:27.157Z,36.13
2023-01-29T10:59:18.244Z,29.75
2023-01-29T11:01:57.386Z,26.17
2023-01-29T11:04:34.868Z,34.28
2023-01-29T11:07:10.608Z,25.70
2023-01-29T11:10:10.907Z,26.73
2023-01-29T11:12:52.464Z,22.77
2023-01-29T11:15:57.426Z,25.77
2023-01-29T11:19:01.637Z,22.17
2023-01-29T11:24:21.417Z,22.75
2023-01-29T11:26:59.177Z,28.50
2023-01-29T11:30:03.062Z,21.05
2023-01-29T11:32:49.030Z,21.85
2023-01-29T11:35:32.841Z,24.17
2023-01-29T11:38:25.613Z,20.55
2023-01-29T11:41:22.324Z,22.02
2023-01-29T11:44:01.797Z,22.20
2023-01-29T11:46:40.333Z,23.42
2023-01-29T11:52:37.584Z,23.77
2023-01-29T11:55:21.443Z,29.63
2023-01-29T11:58:02.208Z,26.10
2023-01-29T12:00:50.625Z,19.88
2023-01-29T12:03:48.399Z,18.50
2023-01-29T12:06:35.167Z,25.63
2023-01-29T12:09:16.828Z,20.55
2023-01-29T12:11:50.032Z,25.13
2023-01-29T12:14:34.239Z,27.73
2023-01-29T12:17:27.909Z,21.77
2023-01-29T12:20:10.343Z,24.63
2023-01-29T12:23:08.755Z,20.38
2023-01-29T12:26:07.399Z,18.83
2023-01-29T12:28:45.812Z,18.80
2023-01-29T12:31:35.970Z,18.95
2023-01-29T12:34:27.409Z,23.55
2023-01-29T12:37:06.930Z,21.15
2023-01-29T12:39:47.220Z,23.38
2023-01-29T12:42:32.403Z,21.80
2023-01-29T12:45:18.776Z,25.83
2023-01-29T12:48:19.977Z,20.10
2023-01-29T12:51:09.685Z,21.17
2023-01-29T12:53:56.336Z,23.63
2023-01-29T12:56:39.884Z,23.67
2023-01-29T12:59:49.681Z,23.40
2023-01-29T13:02:40.939Z,23.45
2023-01-29T13:05:31.284Z,19.45
2023-01-29T13:08:29.238Z,20.95
2023-01-29T13:11:25.861Z,20.20
2023-01-29T13:14:26.720Z,20.92
2023-01-29T13:17:19.142Z,25.92
2023-01-29T13:20:01.305Z,18.85
2023-01-29T13:22:48.281Z,18.30
2023-01-29T13:25:28.482Z,21.10
2023-01-29T13:28:08.796Z,21.33
2023-01-29T13:30:45.752Z,25.98
2023-01-29T13:33:30.938Z,23.77
2023-01-29T13:36:11.090Z,20.23
2023-01-29T13:38:49.199Z,24.20
2023-01-29T13:41:50.039Z,23.95
2023-01-29T13:44:38.176Z,25.05
2023-01-29T13:47:15.282Z,29.17
2023-01-29T13:50:10.681Z,32.90
2023-01-29T13:53:09.007Z,26.65
2023-01-29T13:55:46.596Z,26.50
2023-01-29T13:58:49.411Z,25.48
2023-01-29T14:01:21.207Z,24.90
2023-01-29T14:04:05.926Z,22.45
2023-01-29T14:06:53.037Z,23.88
2023-01-29T14:09:55.392Z,23.50
2023-01-29T14:12:27.698Z,21.52
2023-01-29T14:15:32.223Z,20.40
2023-01-29T14:18:25.524Z,26.77
2023-01-29T14:21:21.609Z,21.00
2023-01-29T14:24:05.166Z,23.05
2023-01-29T14:26:49.150Z,19.48
2023-01-29T14:29:35.435Z,28.63
2023-01-29T14:32:22.302Z,22.27
2023-01-29T14:35:24.503Z,33.30
2023-01-29T14:38:04.964Z,26.35
2023-01-29T14:40:42.561Z,31.70
2023-01-29T14:43:28.884Z,34.75
2023-01-29T14:46:40.173Z,22.38
2023-01-29T14:49:20.796Z,20.40
2023-01-29T14:51:56.109Z,37.13
2023-01-29T14:54:38.490Z,29.50
2023-01-29T14:57:17.734Z,24.02
2023-01-29T14:59:58.218Z,28.30
2023-01-29T15:03:01.392Z,28.83
2023-01-29T15:05:42.189Z,27.10
2023-01-29T15:08:31.744Z,17.08
2023-01-29T15:11:36.050Z,23.35
2023-01-29T15:14:31.841Z,20.23
2023-01-29T15:17:24.887Z,18.65
2023-01-29T15:20:16.781Z,10.93
2023-01-29T15:22:58.711Z,22.52
2023-01-29T15:25:49.470Z,21.38
2023-01-29T15:28:39.992Z,25.67
2023-01-29T15:31:17.236Z,18.85
2023-01-29T15:33:58.201Z,20.77
2023-01-29T15:36:40.870Z,21.63
2023-01-29T15:39:25.109Z,17.17
2023-01-29T15:42:26.034Z,20.25
2023-01-29T15:45:04.255Z,19.90
2023-01-29T15:47:40.162Z,24.92
2023-01-29T15:50:24.819Z,22.38
2023-01-29T15:53:09.832Z,24.25
2023-01-29T15:55:42.038Z,26.92
2023-01-29T15:58:35.045Z,27.25
2023-01-29T16:01:16.658Z,22.63
2023-01-29T16:03:54.625Z,22.85
2023-01-29T16:06:30.781Z,26.30
2023-01-29T16:09:17.828Z,37.75
2023-01-29T16:11:48.445Z,27.40
2023-01-29T16:14:31.790Z,30.10
2023-01-29T16:17:26.190Z,28.20
2023-01-29T16:20:07.760Z,25.40
2023-01-29T16:22:46.092Z,28.75
2023-01-29T16:25:16.916Z,32.28
2023-01-29T16:27:54.688Z,50.65
2023-01-29T16:30:43.900Z,25.27
2023-01-29T16:33:19.785Z,27.58
2023-01-29T16:36:00.758Z,29.27
2023-01-29T16:38:43.307Z,49.70
2023-01-29T16:41:51.219Z,55.15
2023-01-29T16:44:46.203Z,50.35
2023-01-29T16:47:32.953Z,78.90
2023-01-29T16:50:53.929Z,64.18
2023-01-29T16:53:27.445Z,36.90
2023-01-29T16:55:59.876Z,85.18
2023-01-29T16:58:37.271Z,51.27
2023-01-29T17:01:19.686Z,43.08
2023-01-29T17:04:05.128Z,58.38
2023-01-29T17:06:47.299Z,31.67
2023-01-29T17:09:36.023Z,36.40
2023-01-29T17:12:21.209Z,89.65
2023-01-29T17:15:03.112Z,70.38
2023-01-29T17:17:39.492Z,35.88
2023-01-29T17:20:19.160Z,88.57
2023-01-29T17:23:05.310Z,72.28
2023-01-29T17:25:39.094Z,110.82
2023-01-29T17:28:18.619Z,39.05
2023-01-29T17:31:05.271Z,38.55
2023-01-29T17:33:53.242Z,71.13
2023-01-29T17:36:41.141Z,53.45
2023-01-29T17:39:26.604Z,81.78
2023-01-29T17:42:06.564Z,80.95
2023-01-29T17:44:42.684Z,51.15
2023-01-29T17:47:26.183Z,51.40
2023-01-29T17:49:58.562Z,54.13
2023-01-29T17:52:33.180Z,63.20
2023-01-29T17:55:11.419Z,37.20
2023-01-29T17:57:49.362Z,34.47
2023-01-29T18:00:26.012Z,42.00
2023-01-29T18:03:10.074Z,39.25
2023-01-29T18:05:45.082Z,39.78
2023-01-29T18:08:29.704Z,41.58
2023-01-29T18:11:15.625Z,37.35
2023-01-29T18:13:54.162Z,35.15
2023-01-29T18:16:30.071Z,39.00
2023-01-29T18:19:23.747Z,50.90
2023-01-29T18:22:04.691Z,40.00
2023-01-29T18:24:45.521Z,41.38
2023-01-29T18:27:25.550Z,41.28
2023-01-29T18:29:58.359Z,53.25
2023-01-29T18:32:36.423Z,45.55
2023-01-29T18:35:16.298Z,41.15
2023-01-29T18:37:51.378Z,49.10
2023-01-29T18:40:29.413Z,53.63
2023-01-29T18:43:04.314Z,38.78
2023-01-29T18:45:41.239Z,46.72
2023-01-29T18:48:21.625Z,51.92
2023-01-29T18:50:59.424Z,59.58
2023-01-29T18:53:29.470Z,166.32
2023-01-29T18:56:08.911Z,205.30
2023-01-29T18:58:52.635Z,42.55
2023-01-29T19:01:30.880Z,116.53
2023-01-29T19:04:07.053Z,63.40
2023-01-29T19:06:49.671Z,94.68
2023-01-29T19:09:27.129Z,42.40
2023-01-29T19:12:05.512Z,68.55
2023-01-29T19:14:49.144Z,101.72
2023-01-29T19:17:21.466Z,49.00
2023-01-29T19:19:56.343Z,37.03
2023-01-29T19:22:34.953Z,43.72
2023-01-29T19:25:12.677Z,38.22
2023-01-29T19:27:55.631Z,37.90
2023-01-29T19:30:32.204Z,39.58
2023-01-29T19:33:09.165Z,41.92
2023-01-29T19:35:52.490Z,57.35
2023-01-29T19:38:27.670Z,50.25
2023-01-29T19:41:06.965Z,123.57
2023-01-29T19:43:45.850Z,151.75
2023-01-29T19:46:23.884Z,214.35
2023-01-29T19:48:58.899Z,121.35
2023-01-29T19:51:46.769Z,166.18
2023-01-29T19:54:24.316Z,167.82
2023-01-29T19:57:10.541Z,72.53
2023-01-29T19:59:50.888Z,75.60
2023-01-29T20:02:28.309Z,40.72
2023-01-29T20:05:05.593Z,37.58
2023-01-29T20:07:42.416Z,129.32
2023-01-29T20:10:22.509Z,84.28
2023-01-29T20:12:57.376Z,101.38
2023-01-29T20:15:30.095Z,77.43
2023-01-29T20:18:11.778Z,127.33
2023-01-29T20:20:54.812Z,83.53
2023-01-29T20:23:38.470Z,43.42
2023-01-29T20:26:15.075Z,45.90
2023-01-29T20:29:08.217Z,46.28
2023-01-29T20:31:43.590Z,38.70
2023-01-29T20:34:15.940Z,43.60
2023-01-29T20:36:55.951Z,44.67
2023-01-29T20:39:35.738Z,43.92
2023-01-29T20:42:26.471Z,41.40
2023-01-29T20:45:13.732Z,50.10
2023-01-29T20:47:51.280Z,47.63
2023-01-29T20:50:28.447Z,52.15
2023-01-29T20:53:11.629Z,49.90
2023-01-29T20:56:02.219Z,58.28
2023-01-29T20:58:42.138Z,59.90
2023-01-29T21:01:24.576Z,58.88
2023-01-29T21:04:05.660Z,80.80
2023-01-29T21:06:43.616Z,65.18
2023-01-29T21:09:27.055Z,73.82
2023-01-29T21:12:10.476Z,77.72
2023-01-29T21:14:46.125Z,64.18
2023-01-29T21:17:23.679Z,76.55
2023-01-29T21:20:07.351Z,70.20
2023-01-29T21:22:36.783Z,52.20
2023-01-29T21:25:17.480Z,53.22
2023-01-29T21:27:57.871Z,56.35
2023-01-29T21:30:33.931Z,53.45
2023-01-29T21:33:06.343Z,46.63
2023-01-29T21:35:48.809Z,44.30
2023-01-29T21:38:24.137Z,47.95
2023-01-29T21:41:06.332Z,41.28
2023-01-29T21:43:46.946Z,47.40
2023-01-29T21:46:19.096Z,47.15
2023-01-29T21:49:06.923Z,58.80
2023-01-29T21:51:45.113Z,75.55
2023-01-29T21:54:31.195Z,75.55
2023-01-29T21:57:09.471Z,62.80
2023-01-29T21:59:42.197Z,61.72
2023-01-29T22:02:27.333Z,43.40
2023-01-29T22:05:17.694Z,56.47
2023-01-29T22:08:04.781Z,53.78
2023-01-29T22:10:39.870Z,53.53
2023-01-29T22:13:17.712Z,110.85
2023-01-29T22:16:03.113Z,71.55
2023-01-29T22:18:43.518Z,79.35
2023-01-29T22:21:23.786Z,164.57
2023-01-29T22:24:03.653Z,68.53
2023-01-29T22:26:39.168Z,59.22
2023-01-29T22:29:24.278Z,51.95
2023-01-29T22:31:59.064Z,156.43
2023-01-29T22:34:44.571Z,94.63
2023-01-29T22:37:31.098Z,82.88
2023-01-29T22:42:46.464Z,100.78
2023-01-29T22:45:29.700Z,82.88
2023-01-29T22:48:13.467Z,88.53
2023-01-29T22:51:10.496Z,71.10
2023-01-29T22:53:54.427Z,54.53
2023-01-29T22:56:30.637Z,47.75
2023-01-29T22:59:22.711Z,50.13
2023-01-29T23:02:08.731Z,50.20
2023-01-29T23:04:49.088Z,56.08
2023-01-29T23:07:21.096Z,61.28
2023-01-29T23:10:01.505Z,66.18
2023-01-29T23:12:46.967Z,70.28
2023-01-29T23:15:33.422Z,58.75
2023-01-29T23:20:49.581Z,58.17
2023-01-29T23:23:27.001Z,60.60
2023-01-29T23:26:30.243Z,62.75
2023-01-29T23:29:10.866Z,55.88
2023-01-29T23:31:50.893Z,57.50
2023-01-29T23:34:30.864Z,58.38
2023-01-29T23:37:10.648Z,52.50
2023-01-29T23:39:45.603Z,52.22
2023-01-29T23:42:34.890Z,49.33
2023-01-29T23:45:21.567Z,53.58
2023-01-29T23:47:59.453Z,46.92
2023-01-29T23:50:32.118Z,52.28
2023-01-29T23:53:26.082Z,51.35
2023-01-29T23:56:07.611Z,47.75
2023-01-29T23:58:45.763Z,54.95
